sensor_id;sensor_type;location;lat;lon;timestamp;P1;durP1;ratioP1;P2;durP2;ratioP2
16600;SDS011;34891;48.164;11.572;2023-08-17T00:01:50;12.60;;;6.03;;
16600;SDS011;34891;48.164;11.572;2023-08-17T00:07:03;10.27;;;6.22;;
16600;SDS011;34891;48.164;11.572;2023-08-17T00:12:12;9.05;;;5.93;;
16600;SDS011;34891;48.164;11.572;2023-08-17T00:17:33;12.18;;;6.22;;
16600;SDS011;34891;48.164;11.572;2023-08-17T00:22:39;10.75;;;5.80;;
16600;SDS011;34891;48.164;11.572;2023-08-17T00:27:51;9.98;;;5.90;;
16600;SDS011;34891;48.164;11.572;2023-08-17T00:43:41;9.82;;;6.10;;
16600;SDS011;34891;48.164;11.572;2023-08-17T00:49:21;9.70;;;5.75;;
16600;SDS011;34891;48.164;11.572;2023-08-17T00:54:28;15.25;;;5.95;;
16600;SDS011;34891;48.164;11.572;2023-08-17T00:59:39;12.52;;;6.38;;
16600;SDS011;34891;48.164;11.572;2023-08-17T01:04:56;9.47;;;5.73;;
16600;SDS011;34891;48.164;11.572;2023-08-17T01:10:00;9.57;;;5.57;;
16600;SDS011;34891;48.164;11.572;2023-08-17T01:15:16;14.35;;;5.70;;
16600;SDS011;34891;48.164;11.572;2023-08-17T01:20:25;12.48;;;6.30;;
16600;SDS011;34891;48.164;11.572;2023-08-17T01:25:35;9.38;;;6.25;;
16600;SDS011;34891;48.164;11.572;2023-08-17T01:30:49;8.93;;;5.88;;
16600;SDS011;34891;48.164;11.572;2023-08-17T01:36:10;14.32;;;5.72;;
16600;SDS011;34891;48.164;11.572;2023-08-17T01:41:19;10.20;;;5.63;;
16600;SDS011;34891;48.164;11.572;2023-08-17T01:46:29;10.20;;;5.90;;
16600;SDS011;34891;48.164;11.572;2023-08-17T01:51:51;12.57;;;6.43;;
16600;SDS011;34891;48.164;11.572;2023-08-17T01:57:14;10.40;;;5.70;;
16600;SDS011;34891;48.164;11.572;2023-08-17T02:02:19;10.18;;;5.88;;
16600;SDS011;34891;48.164;11.572;2023-08-17T02:07:31;11.43;;;5.78;;
16600;SDS011;34891;48.164;11.572;2023-08-17T02:12:56;10.60;;;6.47;;
16600;SDS011;34891;48.164;11.572;2023-08-17T02:18:24;10.80;;;5.75;;
16600;SDS011;34891;48.164;11.572;2023-08-17T02:23:30;13.63;;;7.25;;
16600;SDS011;34891;48.164;11.572;2023-08-17T02:28:39;14.23;;;6.30;;
16600;SDS011;34891;48.164;11.572;2023-08-17T02:33:48;10.65;;;5.80;;
16600;SDS011;34891;48.164;11.572;2023-08-17T02:38:53;12.70;;;6.30;;
16600;SDS011;34891;48.164;11.572;2023-08-17T02:44:06;11.15;;;6.50;;
16600;SDS011;34891;48.164;11.572;2023-08-17T02:49:26;11.88;;;5.93;;
16600;SDS011;34891;48.164;11.572;2023-08-17T02:54:31;9.88;;;6.07;;
16600;SDS011;34891;48.164;11.572;2023-08-17T02:59:43;12.13;;;6.68;;
16600;SDS011;34891;48.164;11.572;2023-08-17T03:05:02;12.50;;;6.50;;
16600;SDS011;34891;48.164;11.572;2023-08-17T03:10:10;11.55;;;6.38;;
16600;SDS011;34891;48.164;11.572;2023-08-17T03:15:22;13.05;;;7.45;;
16600;SDS011;34891;48.164;11.572;2023-08-17T03:20:28;10.00;;;6.65;;
16600;SDS011;34891;48.164;11.572;2023-08-17T03:25:34;12.65;;;7.20;;
16600;SDS011;34891;48.164;11.572;2023-08-17T03:31:04;13.32;;;7.18;;
16600;SDS011;34891;48.164;11.572;2023-08-17T03:36:09;14.07;;;6.82;;
16600;SDS011;34891;48.164;11.572;2023-08-17T03:41:21;13.00;;;7.03;;
16600;SDS011;34891;48.164;11.572;2023-08-17T03:46:34;14.50;;;7.05;;
16600;SDS011;34891;48.164;11.572;2023-08-17T03:51:43;10.65;;;6.70;;
16600;SDS011;34891;48.164;11.572;2023-08-17T03:56:50;11.50;;;7.25;;
16600;SDS011;34891;48.164;11.572;2023-08-17T04:01:59;12.50;;;6.82;;
16600;SDS011;34891;48.164;11.572;2023-08-17T04:13:00;13.43;;;6.13;;
16600;SDS011;34891;48.164;11.572;2023-08-17T04:18:08;12.63;;;6.78;;
16600;SDS011;34891;48.164;11.572;2023-08-17T04:23:30;11.60;;;7.30;;
16600;SDS011;34891;48.164;11.572;2023-08-17T04:28:32;12.32;;;6.72;;
16600;SDS011;34891;48.164;11.572;2023-08-17T04:33:47;10.90;;;6.43;;
16600;SDS011;34891;48.164;11.572;2023-08-17T04:38:52;12.95;;;7.05;;
16600;SDS011;34891;48.164;11.572;2023-08-17T04:44:06;13.25;;;6.97;;
16600;SDS011;34891;48.164;11.572;2023-08-17T04:49:42;14.65;;;7.90;;
16600;SDS011;34891;48.164;11.572;2023-08-17T04:54:49;15.23;;;7.88;;
16600;SDS011;34891;48.164;11.572;2023-08-17T04:59:55;19.20;;;8.40;;
16600;SDS011;34891;48.164;11.572;2023-08-17T05:05:09;14.02;;;7.57;;
16600;SDS011;34891;48.164;11.572;2023-08-17T05:10:16;15.80;;;8.00;;
16600;SDS011;34891;48.164;11.572;2023-08-17T05:15:25;15.45;;;8.32;;
16600;SDS011;34891;48.164;11.572;2023-08-17T05:25:52;17.08;;;7.88;;
16600;SDS011;34891;48.164;11.572;2023-08-17T05:31:02;11.57;;;7.70;;
16600;SDS011;34891;48.164;11.572;2023-08-17T05:36:08;17.30;;;7.90;;
16600;SDS011;34891;48.164;11.572;2023-08-17T05:41:26;13.75;;;7.88;;
16600;SDS011;34891;48.164;11.572;2023-08-17T05:46:33;12.20;;;7.43;;
16600;SDS011;34891;48.164;11.572;2023-08-17T05:51:42;11.73;;;6.43;;
16600;SDS011;34891;48.164;11.572;2023-08-17T06:02:23;13.23;;;6.78;;
16600;SDS011;34891;48.164;11.572;2023-08-17T06:07:34;12.55;;;7.10;;
16600;SDS011;34891;48.164;11.572;2023-08-17T06:12:41;11.88;;;6.80;;
16600;SDS011;34891;48.164;11.572;2023-08-17T06:17:52;14.80;;;6.45;;
16600;SDS011;34891;48.164;11.572;2023-08-17T06:23:15;13.30;;;6.82;;
16600;SDS011;34891;48.164;11.572;2023-08-17T06:28:28;10.32;;;6.53;;
16600;SDS011;34891;48.164;11.572;2023-08-17T06:33:34;8.77;;;5.75;;
16600;SDS011;34891;48.164;11.572;2023-08-17T06:38:45;10.07;;;5.97;;
16600;SDS011;34891;48.164;11.572;2023-08-17T06:43:52;9.85;;;6.03;;
16600;SDS011;34891;48.164;11.572;2023-08-17T06:48:59;10.70;;;6.07;;
16600;SDS011;34891;48.164;11.572;2023-08-17T06:54:03;8.48;;;6.10;;
16600;SDS011;34891;48.164;11.572;2023-08-17T06:59:15;12.32;;;6.40;;
16600;SDS011;34891;48.164;11.572;2023-08-17T07:09:55;9.95;;;5.97;;
16600;SDS011;34891;48.164;11.572;2023-08-17T07:14:58;10.63;;;5.70;;
16600;SDS011;34891;48.164;11.572;2023-08-17T07:25:08;8.73;;;5.30;;
16600;SDS011;34891;48.164;11.572;2023-08-17T07:30:11;9.88;;;5.35;;
16600;SDS011;34891;48.164;11.572;2023-08-17T07:35:14;8.98;;;5.68;;
16600;SDS011;34891;48.164;11.572;2023-08-17T07:40:44;11.27;;;6.28;;
16600;SDS011;34891;48.164;11.572;2023-08-17T07:45:53;8.20;;;6.25;;
16600;SDS011;34891;48.164;11.572;2023-08-17T07:51:01;9.93;;;5.88;;
16600;SDS011;34891;48.164;11.572;2023-08-17T07:56:09;7.68;;;5.50;;
16600;SDS011;34891;48.164;11.572;2023-08-17T08:01:17;7.63;;;5.35;;
16600;SDS011;34891;48.164;11.572;2023-08-17T08:06:24;8.32;;;5.60;;
16600;SDS011;34891;48.164;11.572;2023-08-17T08:11:33;6.32;;;5.68;;
16600;SDS011;34891;48.164;11.572;2023-08-17T08:16:39;7.82;;;5.60;;
16600;SDS011;34891;48.164;11.572;2023-08-17T08:21:44;9.75;;;5.60;;
16600;SDS011;34891;48.164;11.572;2023-08-17T08:26:55;7.55;;;5.88;;
16600;SDS011;34891;48.164;11.572;2023-08-17T08:32:00;6.85;;;5.60;;
16600;SDS011;34891;48.164;11.572;2023-08-17T08:37:09;7.13;;;5.23;;
16600;SDS011;34891;48.164;11.572;2023-08-17T08:42:23;6.75;;;6.10;;
16600;SDS011;34891;48.164;11.572;2023-08-17T08:47:30;7.57;;;6.57;;
16600;SDS011;34891;48.164;11.572;2023-08-17T08:52:42;8.73;;;5.93;;
16600;SDS011;34891;48.164;11.572;2023-08-17T08:57:57;6.55;;;5.82;;
16600;SDS011;34891;48.164;11.572;2023-08-17T09:03:02;6.88;;;5.30;;
16600;SDS011;34891;48.164;11.572;2023-08-17T09:08:17;7.00;;;5.45;;
16600;SDS011;34891;48.164;11.572;2023-08-17T09:13:59;7.10;;;5.63;;
16600;SDS011;34891;48.164;11.572;2023-08-17T09:19:10;6.47;;;5.38;;
16600;SDS011;34891;48.164;11.572;2023-08-17T09:24:17;6.80;;;6.20;;
16600;SDS011;34891;48.164;11.572;2023-08-17T09:29:28;6.22;;;5.63;;
16600;SDS011;34891;48.164;11.572;2023-08-17T09:34:41;7.60;;;5.47;;
16600;SDS011;34891;48.164;11.572;2023-08-17T09:40:09;10.02;;;6.18;;
16600;SDS011;34891;48.164;11.572;2023-08-17T09:50:47;5.43;;;4.90;;
16600;SDS011;34891;48.164;11.572;2023-08-17T09:56:01;9.25;;;6.10;;
16600;SDS011;34891;48.164;11.572;2023-08-17T10:01:10;6.40;;;5.80;;
16600;SDS011;34891;48.164;11.572;2023-08-17T10:06:20;6.32;;;5.57;;
16600;SDS011;34891;48.164;11.572;2023-08-17T10:11:30;6.88;;;5.30;;
16600;SDS011;34891;48.164;11.572;2023-08-17T10:16:45;7.35;;;5.93;;
16600;SDS011;34891;48.164;11.572;2023-08-17T10:21:56;6.65;;;5.90;;
16600;SDS011;34891;48.164;11.572;2023-08-17T10:27:07;6.05;;;5.55;;
16600;SDS011;34891;48.164;11.572;2023-08-17T10:32:13;7.82;;;5.55;;
16600;SDS011;34891;48.164;11.572;2023-08-17T10:37:41;7.60;;;6.00;;
16600;SDS011;34891;48.164;11.572;2023-08-17T10:42:57;5.88;;;5.38;;
16600;SDS011;34891;48.164;11.572;2023-08-17T10:48:25;6.70;;;5.32;;
16600;SDS011;34891;48.164;11.572;2023-08-17T10:59:17;8.90;;;5.22;;
16600;SDS011;34891;48.164;11.572;2023-08-17T11:04:51;7.65;;;5.13;;
16600;SDS011;34891;48.164;11.572;2023-08-17T11:09:57;6.50;;;5.05;;
16600;SDS011;34891;48.164;11.572;2023-08-17T11:15:07;7.65;;;5.40;;
16600;SDS011;34891;48.164;11.572;2023-08-17T11:20:14;6.35;;;5.65;;
16600;SDS011;34891;48.164;11.572;2023-08-17T11:25:19;6.03;;;5.28;;
16600;SDS011;34891;48.164;11.572;2023-08-17T11:30:45;6.18;;;4.72;;
16600;SDS011;34891;48.164;11.572;2023-08-17T11:35:54;5.40;;;4.90;;
16600;SDS011;34891;48.164;11.572;2023-08-17T11:41:04;6.07;;;5.47;;
16600;SDS011;34891;48.164;11.572;2023-08-17T11:46:24;6.30;;;5.32;;
16600;SDS011;34891;48.164;11.572;2023-08-17T11:51:44;5.95;;;5.45;;
16600;SDS011;34891;48.164;11.572;2023-08-17T11:56:50;5.30;;;4.80;;
16600;SDS011;34891;48.164;11.572;2023-08-17T12:02:00;6.20;;;5.60;;
16600;SDS011;34891;48.164;11.572;2023-08-17T12:07:06;7.15;;;5.70;;
16600;SDS011;34891;48.164;11.572;2023-08-17T12:12:17;5.60;;;5.10;;
16600;SDS011;34891;48.164;11.572;2023-08-17T12:17:32;5.85;;;5.25;;
16600;SDS011;34891;48.164;11.572;2023-08-17T12:22:41;5.43;;;4.93;;
16600;SDS011;34891;48.164;11.572;2023-08-17T12:27:48;7.22;;;6.00;;
16600;SDS011;34891;48.164;11.572;2023-08-17T12:32:55;6.28;;;4.88;;
16600;SDS011;34891;48.164;11.572;2023-08-17T12:43:12;6.00;;;5.13;;
16600;SDS011;34891;48.164;11.572;2023-08-17T12:48:22;5.90;;;5.30;;
16600;SDS011;34891;48.164;11.572;2023-08-17T12:53:37;6.38;;;5.40;;
16600;SDS011;34891;48.164;11.572;2023-08-17T12:58:52;11.63;;;5.60;;
16600;SDS011;34891;48.164;11.572;2023-08-17T13:04:09;6.10;;;4.75;;
16600;SDS011;34891;48.164;11.572;2023-08-17T13:09:12;5.93;;;5.32;;
16600;SDS011;34891;48.164;11.572;2023-08-17T13:14:36;6.68;;;4.60;;
16600;SDS011;34891;48.164;11.572;2023-08-17T13:19:50;7.90;;;4.88;;
16600;SDS011;34891;48.164;11.572;2023-08-17T13:24:55;5.43;;;4.85;;
16600;SDS011;34891;48.164;11.572;2023-08-17T13:29:59;8.75;;;4.68;;
16600;SDS011;34891;48.164;11.572;2023-08-17T13:35:09;7.30;;;4.10;;
16600;SDS011;34891;48.164;11.572;2023-08-17T13:40:17;6.10;;;4.80;;
16600;SDS011;34891;48.164;11.572;2023-08-17T13:45:23;7.13;;;5.00;;
16600;SDS011;34891;48.164;11.572;2023-08-17T13:50:30;6.70;;;4.65;;
16600;SDS011;34891;48.164;11.572;2023-08-17T13:55:39;6.32;;;4.40;;
16600;SDS011;34891;48.164;11.572;2023-08-17T14:00:50;6.68;;;5.22;;
16600;SDS011;34891;48.164;11.572;2023-08-17T14:05:57;9.90;;;5.38;;
16600;SDS011;34891;48.164;11.572;2023-08-17T14:11:01;7.20;;;5.15;;
16600;SDS011;34891;48.164;11.572;2023-08-17T14:16:10;8.65;;;6.20;;
16600;SDS011;34891;48.164;11.572;2023-08-17T14:21:18;10.40;;;6.82;;
16600;SDS011;34891;48.164;11.572;2023-08-17T14:26:29;8.07;;;6.47;;
16600;SDS011;34891;48.164;11.572;2023-08-17T14:31:40;9.43;;;6.70;;
16600;SDS011;34891;48.164;11.572;2023-08-17T14:37:07;7.88;;;6.15;;
16600;SDS011;34891;48.164;11.572;2023-08-17T14:42:18;7.65;;;5.80;;
16600;SDS011;34891;48.164;11.572;2023-08-17T14:47:27;8.93;;;6.78;;
16600;SDS011;34891;48.164;11.572;2023-08-17T14:52:33;8.10;;;6.68;;
16600;SDS011;34891;48.164;11.572;2023-08-17T14:57:38;11.48;;;6.47;;
16600;SDS011;34891;48.164;11.572;2023-08-17T15:02:44;9.50;;;6.85;;
16600;SDS011;34891;48.164;11.572;2023-08-17T15:07:54;9.88;;;6.25;;
16600;SDS011;34891;48.164;11.572;2023-08-17T15:12:58;9.57;;;6.57;;
16600;SDS011;34891;48.164;11.572;2023-08-17T15:18:13;11.02;;;6.97;;
16600;SDS011;34891;48.164;11.572;2023-08-17T15:23:21;9.23;;;6.70;;
16600;SDS011;34891;48.164;11.572;2023-08-17T15:28:29;9.57;;;7.10;;
16600;SDS011;34891;48.164;11.572;2023-08-17T15:33:40;9.05;;;7.20;;
16600;SDS011;34891;48.164;11.572;2023-08-17T15:38:50;12.48;;;8.40;;
16600;SDS011;34891;48.164;11.572;2023-08-17T15:43:56;9.20;;;7.18;;
16600;SDS011;34891;48.164;11.572;2023-08-17T15:49:05;10.43;;;7.07;;
16600;SDS011;34891;48.164;11.572;2023-08-17T15:54:21;10.63;;;7.70;;
16600;SDS011;34891;48.164;11.572;2023-08-17T15:59:39;9.05;;;7.30;;
16600;SDS011;34891;48.164;11.572;2023-08-17T16:04:45;10.98;;;6.85;;
16600;SDS011;34891;48.164;11.572;2023-08-17T16:09:51;13.35;;;7.53;;
16600;SDS011;34891;48.164;11.572;2023-08-17T16:15:00;9.77;;;7.55;;
16600;SDS011;34891;48.164;11.572;2023-08-17T16:20:14;12.05;;;7.20;;
16600;SDS011;34891;48.164;11.572;2023-08-17T16:25:23;10.98;;;7.68;;
16600;SDS011;34891;48.164;11.572;2023-08-17T16:30:31;8.65;;;4.72;;
16600;SDS011;34891;48.164;11.572;2023-08-17T16:35:48;12.13;;;3.45;;
16600;SDS011;34891;48.164;11.572;2023-08-17T16:47:22;7.10;;;2.90;;
16600;SDS011;34891;48.164;11.572;2023-08-17T16:52:41;8.38;;;2.83;;
16600;SDS011;34891;48.164;11.572;2023-08-17T16:57:58;9.98;;;2.70;;
16600;SDS011;34891;48.164;11.572;2023-08-17T17:03:13;9.48;;;2.65;;
16600;SDS011;34891;48.164;11.572;2023-08-17T17:08:20;5.25;;;2.30;;
16600;SDS011;34891;48.164;11.572;2023-08-17T17:13:29;3.75;;;2.10;;
16600;SDS011;34891;48.164;11.572;2023-08-17T17:18:34;6.15;;;3.22;;
16600;SDS011;34891;48.164;11.572;2023-08-17T17:23:38;5.70;;;3.05;;
16600;SDS011;34891;48.164;11.572;2023-08-17T17:28:44;5.78;;;3.15;;
16600;SDS011;34891;48.164;11.572;2023-08-17T17:33:51;8.40;;;3.47;;
16600;SDS011;34891;48.164;11.572;2023-08-17T17:38:59;7.43;;;3.10;;
16600;SDS011;34891;48.164;11.572;2023-08-17T17:44:15;5.57;;;2.58;;
16600;SDS011;34891;48.164;11.572;2023-08-17T17:49:35;4.85;;;2.55;;
16600;SDS011;34891;48.164;11.572;2023-08-17T17:54:41;5.57;;;2.67;;
16600;SDS011;34891;48.164;11.572;2023-08-17T17:59:47;6.32;;;3.40;;
16600;SDS011;34891;48.164;11.572;2023-08-17T18:05:00;5.38;;;3.08;;
16600;SDS011;34891;48.164;11.572;2023-08-17T18:10:17;7.93;;;3.17;;
16600;SDS011;34891;48.164;11.572;2023-08-17T18:15:27;7.57;;;3.03;;
16600;SDS011;34891;48.164;11.572;2023-08-17T18:31:20;5.75;;;2.95;;
16600;SDS011;34891;48.164;11.572;2023-08-17T18:36:28;11.00;;;3.67;;
16600;SDS011;34891;48.164;11.572;2023-08-17T18:41:34;8.07;;;3.20;;
16600;SDS011;34891;48.164;11.572;2023-08-17T18:46:48;7.15;;;3.15;;
16600;SDS011;34891;48.164;11.572;2023-08-17T18:51:53;7.55;;;3.38;;
16600;SDS011;34891;48.164;11.572;2023-08-17T18:57:03;7.78;;;3.67;;
16600;SDS011;34891;48.164;11.572;2023-08-17T19:02:42;14.10;;;7.57;;
16600;SDS011;34891;48.164;11.572;2023-08-17T19:07:52;7.47;;;3.42;;
16600;SDS011;34891;48.164;11.572;2023-08-17T19:12:56;13.05;;;4.18;;
16600;SDS011;34891;48.164;11.572;2023-08-17T19:18:11;6.00;;;2.25;;
16600;SDS011;34891;48.164;11.572;2023-08-17T19:23:25;7.22;;;3.30;;
16600;SDS011;34891;48.164;11.572;2023-08-17T19:28:50;7.78;;;3.45;;
16600;SDS011;34891;48.164;11.572;2023-08-17T19:34:03;9.18;;;3.47;;
16600;SDS011;34891;48.164;11.572;2023-08-17T19:39:22;9.25;;;3.25;;
16600;SDS011;34891;48.164;11.572;2023-08-17T19:44:27;3.30;;;1.80;;
16600;SDS011;34891;48.164;11.572;2023-08-17T19:49:36;5.88;;;2.95;;
16600;SDS011;34891;48.164;11.572;2023-08-17T19:54:48;8.10;;;3.63;;
16600;SDS011;34891;48.164;11.572;2023-08-17T19:59:54;9.75;;;3.63;;
16600;SDS011;34891;48.164;11.572;2023-08-17T20:05:04;5.90;;;3.38;;
16600;SDS011;34891;48.164;11.572;2023-08-17T20:10:11;7.80;;;4.03;;
16600;SDS011;34891;48.164;11.572;2023-08-17T20:15:20;4.95;;;2.25;;
16600;SDS011;34891;48.164;11.572;2023-08-17T20:25:58;8.57;;;3.25;;
16600;SDS011;34891;48.164;11.572;2023-08-17T20:31:09;6.33;;;3.37;;
16600;SDS011;34891;48.164;11.572;2023-08-17T20:36:16;4.45;;;2.83;;
16600;SDS011;34891;48.164;11.572;2023-08-17T20:41:24;7.05;;;3.10;;
16600;SDS011;34891;48.164;11.572;2023-08-17T20:46:28;7.60;;;3.28;;
16600;SDS011;34891;48.164;11.572;2023-08-17T20:51:37;10.30;;;4.15;;
16600;SDS011;34891;48.164;11.572;2023-08-17T20:56:54;9.85;;;3.70;;
16600;SDS011;34891;48.164;11.572;2023-08-17T21:02:02;8.43;;;3.92;;
16600;SDS011;34891;48.164;11.572;2023-08-17T21:07:09;10.15;;;4.18;;
16600;SDS011;34891;48.164;11.572;2023-08-17T21:12:19;8.07;;;4.15;;
16600;SDS011;34891;48.164;11.572;2023-08-17T21:17:32;7.20;;;3.72;;
16600;SDS011;34891;48.164;11.572;2023-08-17T21:22:42;7.00;;;4.07;;
16600;SDS011;34891;48.164;11.572;2023-08-17T21:27:51;7.85;;;3.67;;
16600;SDS011;34891;48.164;11.572;2023-08-17T21:33:05;6.78;;;3.50;;
16600;SDS011;34891;48.164;11.572;2023-08-17T21:38:17;8.18;;;4.00;;
16600;SDS011;34891;48.164;11.572;2023-08-17T21:48:53;10.18;;;4.65;;
16600;SDS011;34891;48.164;11.572;2023-08-17T21:54:10;9.93;;;4.40;;
16600;SDS011;34891;48.164;11.572;2023-08-17T21:59:23;8.38;;;3.92;;
16600;SDS011;34891;48.164;11.572;2023-08-17T22:04:32;9.57;;;4.05;;
16600;SDS011;34891;48.164;11.572;2023-08-17T22:09:37;7.80;;;3.90;;
16600;SDS011;34891;48.164;11.572;2023-08-17T22:14:50;5.80;;;3.50;;
16600;SDS011;34891;48.164;11.572;2023-08-17T22:19:58;7.47;;;3.28;;
16600;SDS011;34891;48.164;11.572;2023-08-17T22:25:04;8.20;;;3.80;;
16600;SDS011;34891;48.164;11.572;2023-08-17T22:30:12;10.88;;;3.80;;
16600;SDS011;34891;48.164;11.572;2023-08-17T22:40:43;6.53;;;3.60;;
16600;SDS011;34891;48.164;11.572;2023-08-17T22:45:53;6.40;;;3.22;;
16600;SDS011;34891;48.164;11.572;2023-08-17T22:51:05;5.40;;;3.13;;
16600;SDS011;34891;48.164;11.572;2023-08-17T22:56:15;8.13;;;3.08;;
16600;SDS011;34891;48.164;11.572;2023-08-17T23:01:24;7.55;;;3.03;;
16600;SDS011;34891;48.164;11.572;2023-08-17T23:06:30;9.23;;;3.20;;
16600;SDS011;34891;48.164;11.572;2023-08-17T23:11:35;7.55;;;3.20;;
16600;SDS011;34891;48.164;11.572;2023-08-17T23:16:38;5.65;;;3.33;;
16600;SDS011;34891;48.164;11.572;2023-08-17T23:21:47;5.63;;;2.75;;
16600;SDS011;34891;48.164;11.572;2023-08-17T23:27:07;8.20;;;2.70;;
16600;SDS011;34891;48.164;11.572;2023-08-17T23:32:11;7.63;;;2.58;;
16600;SDS011;34891;48.164;11.572;2023-08-17T23:37:41;3.00;;;1.88;;
16600;SDS011;34891;48.164;11.572;2023-08-17T23:42:48;6.93;;;2.90;;
16600;SDS011;34891;48.164;11.572;2023-08-17T23:47:52;5.47;;;3.08;;
16600;SDS011;34891;48.164;11.572;2023-08-17T23:52:57;5.65;;;2.63;;
16600;SDS011;34891;48.164;11.572;2023-08-17T23:58:25;5.53;;;2.53;;
